Time;durP1;ratioP1;P1;durP2;ratioP2;P2;SDS_P1;SDS_P2;PMS_P1;PMS_P2;Temp;Humidity;BMP_temperature;BMP_pressure;BME280_temperature;BME280_humidity;BME280_pressure;Samples;Min_cycle;Max_cycle;Signal;HPM_P1;HPM_P2
2023/04/01 00:00:32;;;;;;;1.50;1.10;;;10.70;98.20;;;;;;5029372;28;20486;-76
2023/04/01 00:03:00;;;;;;;1.57;1.10;;;10.70;98.20;;;;;;5024881;28;21311;-76
2023/04/01 00:05:28;;;;;;;1.53;1.13;;;10.70;98.20;;;;;;5029651;28;20905;-76
2023/04/01 00:07:54;;;;;;;1.57;1.20;;;10.70;98.20;;;;;;5029699;28;20975;-76
2023/04/01 00:10:21;;;;;;;1.57;1.13;;;10.70;98.20;;;;;;5027513;28;20582;-75
2023/04/01 00:12:48;;;;;;;10.23;9.40;;;10.70;98.20;;;;;;5027804;28;20466;-76
2023/04/01 00:15:15;;;;;;;1.60;1.23;;;10.70;98.20;;;;;;5027039;28;20583;-75
2023/04/01 00:17:42;;;;;;;1.53;1.20;;;10.70;98.20;;;;;;5027820;28;20466;-76
2023/04/01 00:20:09;;;;;;;1.57;1.10;;;10.60;98.20;;;;;;5028554;28;20511;-76
2023/04/01 00:22:38;;;;;;;1.60;1.20;;;10.70;98.20;;;;;;5028945;28;20490;-76
2023/04/01 00:25:05;;;;;;;1.53;1.10;;;10.70;98.20;;;;;;5028877;28;20470;-75
2023/04/01 00:27:32;;;;;;;1.50;1.10;;;10.70;98.20;;;;;;5028980;28;20459;-76
2023/04/01 00:29:59;;;;;;;1.60;1.23;;;10.70;98.20;;;;;;5027057;28;20487;-77
2023/04/01 00:32:26;;;;;;;1.50;1.10;;;10.70;98.20;;;;;;5026283;28;20462;-75
2023/04/01 00:34:53;;;;;;;1.60;1.20;;;10.60;98.20;;;;;;5028604;28;20456;-75
2023/04/01 00:37:20;;;;;;;1.60;1.10;;;10.60;98.20;;;;;;5029157;28;20489;-77
2023/04/01 00:39:48;;;;;;;1.60;1.20;;;10.60;98.20;;;;;;5027841;28;20513;-75
2023/04/01 00:42:15;;;;;;;1.53;1.10;;;10.60;98.20;;;;;;5025896;28;20462;-75
2023/04/01 00:44:43;;;;;;;1.60;1.20;;;10.60;98.20;;;;;;5028142;28;20455;-76
2023/04/01 00:47:10;;;;;;;1.60;1.17;;;10.60;98.20;;;;;;5029367;28;20463;-76
2023/04/01 00:49:40;;;;;;;1.57;1.10;;;10.60;98.20;;;;;;5028600;28;20479;-75
2023/04/01 00:52:11;;;;;;;1.50;1.10;;;10.60;98.20;;;;;;5025750;28;20459;-75
2023/04/01 00:54:39;;;;;;;1.53;1.10;;;10.60;98.20;;;;;;5026118;28;20463;-75
2023/04/01 00:57:10;;;;;;;1.50;1.10;;;10.60;98.20;;;;;;5026594;28;20455;-75
2023/04/01 00:59:42;;;;;;;1.57;1.10;;;10.60;98.20;;;;;;5028110;28;20566;-75
2023/04/01 01:02:11;;;;;;;1.53;1.20;;;10.60;98.20;;;;;;5027283;28;20977;-75
2023/04/01 01:04:39;;;;;;;1.50;1.10;;;10.60;98.20;;;;;;5028090;28;20463;-75
2023/04/01 01:07:17;;;;;;;1.60;1.20;;;10.60;98.20;;;;;;5028801;28;20521;-75
2023/04/01 01:09:49;;;;;;;1.50;1.10;;;10.60;98.20;;;;;;5027725;28;21038;-75
2023/04/01 01:12:21;;;;;;;1.60;1.20;;;10.60;98.20;;;;;;5026605;28;21210;-75
2023/04/01 01:14:59;;;;;;;1.60;1.27;;;10.60;98.20;;;;;;5027960;28;20490;-76
2023/04/01 01:17:37;;;;;;;1.53;1.10;;;10.60;98.20;;;;;;5027427;28;20459;-76
2023/04/01 01:20:38;;;;;;;1.50;1.10;;;10.60;98.20;;;;;;5026957;28;20529;-76
2023/04/01 01:23:27;;;;;;;1.50;1.10;;;10.60;98.20;;;;;;5024684;28;20474;-76
2023/04/01 01:26:05;;;;;;;1.60;1.20;;;10.60;98.20;;;;;;5026783;28;20459;-76
2023/04/01 01:28:48;;;;;;;1.60;1.20;;;10.50;98.20;;;;;;5026356;28;20459;-75
2023/04/01 01:31:24;;;;;;;1.50;1.10;;;10.60;98.20;;;;;;5026516;28;20494;-76
2023/04/01 01:34:07;;;;;;;1.50;1.10;;;10.50;98.20;;;;;;5025117;28;20546;-76
2023/04/01 01:36:35;;;;;;;1.57;1.20;;;10.50;98.20;;;;;;5026739;28;21161;-77
2023/04/01 01:39:04;;;;;;;1.60;1.20;;;10.50;98.20;;;;;;5027502;28;20629;-77
2023/04/01 01:41:32;;;;;;;1.60;1.23;;;10.50;98.20;;;;;;5023432;28;20546;-76
2023/04/01 01:44:00;;;;;;;1.50;1.10;;;10.50;98.20;;;;;;5026546;28;20550;-76
2023/04/01 01:46:30;;;;;;;1.50;1.10;;;10.50;98.20;;;;;;5027979;28;20469;-76
2023/04/01 01:48:58;;;;;;;1.50;1.10;;;10.50;98.20;;;;;;5018360;28;20487;-77
2023/04/01 01:51:27;;;;;;;1.57;1.10;;;10.50;98.20;;;;;;5025910;28;21000;-76
2023/04/01 01:53:55;;;;;;;1.53;1.10;;;10.50;98.20;;;;;;5024066;28;20887;-77
2023/04/01 01:56:27;;;;;;;1.50;1.10;;;10.40;98.20;;;;;;5028037;28;20482;-77
2023/04/01 01:58:57;;;;;;;1.53;1.17;;;10.40;98.20;;;;;;5024669;28;20463;-77
2023/04/01 02:01:27;;;;;;;1.57;1.17;;;10.40;98.20;;;;;;5025903;28;20525;-78
2023/04/01 02:03:55;;;;;;;1.50;1.10;;;10.40;98.20;;;;;;5026443;28;20843;-78
2023/04/01 02:06:24;;;;;;;1.50;1.10;;;10.30;98.20;;;;;;5027403;28;20845;-77
2023/04/01 02:08:54;;;;;;;1.50;1.10;;;10.30;98.20;;;;;;5027141;28;20460;-77
2023/04/01 02:11:27;;;;;;;1.50;1.10;;;10.30;98.20;;;;;;5024571;28;20483;-77
2023/04/01 02:13:57;;;;;;;1.57;1.17;;;10.30;98.20;;;;;;5024162;28;20470;-77
2023/04/01 02:16:29;;;;;;;1.60;1.10;;;10.30;98.20;;;;;;5028030;28;20459;-77
2023/04/01 02:18:58;;;;;;;1.53;1.13;;;10.30;98.20;;;;;;5025140;28;20487;-77
2023/04/01 02:21:29;;;;;;;1.60;1.20;;;10.30;98.20;;;;;;5026200;28;20463;-77
2023/04/01 02:23:57;;;;;;;1.50;1.20;;;10.30;98.20;;;;;;5026278;28;20463;-78
2023/04/01 02:26:27;;;;;;;1.53;1.20;;;10.20;98.20;;;;;;5027615;28;20463;-77
2023/04/01 02:28:55;;;;;;;1.50;1.10;;;10.20;98.20;;;;;;5026317;28;20480;-79
2023/04/01 02:31:23;;;;;;;1.50;1.13;;;10.20;98.20;;;;;;5027303;28;21077;-79
2023/04/01 02:33:50;;;;;;;1.57;1.10;;;10.20;98.20;;;;;;5026236;28;20467;-80
2023/04/01 02:36:18;;;;;;;1.50;1.10;;;10.20;98.20;;;;;;5027321;28;20455;-80
2023/04/01 02:38:47;;;;;;;1.50;1.10;;;10.10;98.20;;;;;;5026883;28;20463;-80
2023/04/01 02:41:14;;;;;;;1.50;1.10;;;10.10;98.20;;;;;;5026888;28;20475;-78
2023/04/01 02:43:42;;;;;;;1.53;1.10;;;10.10;98.20;;;;;;5024791;28;20462;-77
2023/04/01 02:46:09;;;;;;;1.57;1.10;;;10.10;98.20;;;;;;5027154;28;20543;-78
2023/04/01 02:48:36;;;;;;;1.53;1.10;;;10.10;98.20;;;;;;5026943;28;20462;-78
2023/04/01 02:51:04;;;;;;;1.53;1.10;;;10.10;98.20;;;;;;5026571;28;20924;-80
2023/04/01 02:53:31;;;;;;;1.53;1.10;;;10.10;98.20;;;;;;5026769;28;20487;-77
2023/04/01 02:55:57;;;;;;;1.60;1.20;;;10.10;98.20;;;;;;5027082;28;20459;-77
2023/04/01 02:58:24;;;;;;;1.53;1.10;;;10.10;98.20;;;;;;5025465;28;20466;-77
2023/04/01 03:00:52;;;;;;;1.60;1.20;;;10.10;98.20;;;;;;5026271;28;20479;-77
2023/04/01 03:03:19;;;;;;;1.53;1.10;;;10.10;98.20;;;;;;5024390;28;20982;-76
2023/04/01 03:05:46;;;;;;;1.60;1.23;;;10.10;98.20;;;;;;5024833;28;20463;-78
2023/04/01 03:08:13;;;;;;;1.57;1.10;;;10.10;98.20;;;;;;5027015;28;20459;-77
2023/04/01 03:10:39;;;;;;;1.60;1.30;;;10.10;98.20;;;;;;5025329;28;20487;-77
2023/04/01 03:13:06;;;;;;;1.57;1.17;;;10.00;98.20;;;;;;5025908;28;20470;-78
2023/04/01 03:15:33;;;;;;;1.60;1.20;;;10.00;98.20;;;;;;5026653;28;20537;-77
2023/04/01 03:18:01;;;;;;;1.57;1.20;;;10.00;98.20;;;;;;5025505;28;20468;-78
2023/04/01 03:20:28;;;;;;;1.60;1.17;;;10.00;98.20;;;;;;5025130;28;20483;-80
2023/04/01 03:22:55;;;;;;;1.50;1.10;;;10.00;98.20;;;;;;5026324;28;20461;-77
2023/04/01 03:25:21;;;;;;;1.60;1.20;;;10.10;98.20;;;;;;5030424;28;20541;-79
2023/04/01 03:27:48;;;;;;;1.53;1.10;;;10.10;98.20;;;;;;5030654;28;20459;-78
2023/04/01 03:30:15;;;;;;;1.57;1.20;;;10.10;98.20;;;;;;5028723;28;20479;-77
2023/04/01 03:32:42;;;;;;;1.57;1.20;;;10.10;98.20;;;;;;5029822;28;21096;-77
2023/04/01 03:35:10;;;;;;;1.53;1.10;;;10.10;98.20;;;;;;5029173;28;20490;-78
2023/04/01 03:37:38;;;;;;;1.57;1.20;;;10.10;98.20;;;;;;5029245;28;20517;-78
2023/04/01 03:40:06;;;;;;;1.60;1.20;;;10.10;98.20;;;;;;5028886;28;20486;-77
2023/04/01 03:42:33;;;;;;;1.53;1.10;;;10.10;98.20;;;;;;5026049;28;20973;-78
2023/04/01 03:45:00;;;;;;;1.50;1.10;;;10.10;98.20;;;;;;5026625;28;20877;-78
2023/04/01 03:47:26;;;;;;;1.60;1.30;;;10.10;98.20;;;;;;5030427;28;20458;-77
2023/04/01 03:49:53;;;;;;;1.53;1.10;;;10.10;98.20;;;;;;5025711;28;21083;-80
2023/04/01 03:52:22;;;;;;;1.57;1.10;;;10.10;98.20;;;;;;5029294;28;20489;-78
2023/04/01 03:54:49;;;;;;;1.60;1.30;;;10.10;98.20;;;;;;5029422;28;20850;-77
2023/04/01 03:57:17;;;;;;;1.50;1.10;;;10.10;98.20;;;;;;5031118;28;20559;-79
2023/04/01 03:59:43;;;;;;;1.50;1.10;;;10.00;98.20;;;;;;5026503;28;20480;-80
2023/04/01 04:02:10;;;;;;;1.57;1.10;;;10.00;98.20;;;;;;5029566;28;20463;-81
2023/04/01 04:04:37;;;;;;;1.53;1.10;;;10.00;98.20;;;;;;5032553;28;20458;-80
2023/04/01 04:07:04;;;;;;;1.57;1.13;;;10.00;98.20;;;;;;5032213;28;20455;-82
2023/04/01 04:09:33;;;;;;;1.50;1.10;;;10.00;98.20;;;;;;5032143;28;20479;-79
2023/04/01 04:12:00;;;;;;;1.50;1.20;;;10.00;98.20;;;;;;5032525;28;20495;-82
2023/04/01 04:14:27;;;;;;;1.50;1.10;;;10.00;98.20;;;;;;5032374;28;20470;-83
2023/04/01 04:16:54;;;;;;;1.57;1.20;;;10.00;98.20;;;;;;5029599;28;20459;-80
2023/04/01 04:19:20;;;;;;;1.50;1.10;;;10.00;98.20;;;;;;5032374;28;20714;-80
2023/04/01 04:21:47;;;;;;;1.50;1.10;;;10.00;98.20;;;;;;5032287;28;20542;-83
2023/04/01 04:24:14;;;;;;;1.50;1.10;;;10.00;98.20;;;;;;5031162;28;20455;-78
2023/04/01 04:26:42;;;;;;;1.60;1.20;;;10.00;98.20;;;;;;5032563;28;20471;-79
2023/04/01 04:29:09;;;;;;;1.50;1.10;;;10.00;98.20;;;;;;5029880;28;20475;-79
2023/04/01 04:31:36;;;;;;;1.50;1.10;;;10.00;98.20;;;;;;5031831;28;20637;-81
2023/04/01 04:34:03;;;;;;;1.60;1.20;;;10.00;98.20;;;;;;5032441;28;20947;-82
2023/04/01 04:36:30;;;;;;;1.60;1.20;;;10.00;98.20;;;;;;5032134;28;20863;-80
2023/04/01 04:38:57;;;;;;;1.53;1.10;;;10.00;98.20;;;;;;5033167;28;20526;-79
2023/04/01 04:41:25;;;;;;;1.60;1.10;;;10.00;98.20;;;;;;5028464;28;20455;-79
2023/04/01 04:43:55;;;;;;;1.60;1.20;;;10.00;98.20;;;;;;5030889;28;21028;-80
2023/04/01 04:46:23;;;;;;;1.60;1.20;;;10.00;98.20;;;;;;5030654;28;20497;-81
2023/04/01 04:48:50;;;;;;;1.60;1.10;;;10.00;98.20;;;;;;5031473;28;21142;-82
2023/04/01 04:51:17;;;;;;;1.60;1.20;;;10.00;98.20;;;;;;5031102;28;20697;-81
2023/04/01 04:53:45;;;;;;;1.50;1.10;;;10.00;98.20;;;;;;5028552;28;20460;-80
2023/04/01 04:56:12;;;;;;;1.53;1.10;;;10.00;98.20;;;;;;5029748;28;20637;-76
2023/04/01 04:58:40;;;;;;;1.50;1.10;;;10.00;98.20;;;;;;5028938;28;20962;-83
2023/04/01 05:01:11;;;;;;;1.53;1.07;;;10.00;98.20;;;;;;5025558;28;20539;-77
2023/04/01 05:03:38;;;;;;;1.53;1.10;;;10.00;98.20;;;;;;5027386;28;20907;-79
2023/04/01 05:06:06;;;;;;;1.53;1.13;;;10.00;98.20;;;;;;5029561;28;20463;-79
2023/04/01 05:08:33;;;;;;;1.60;1.20;;;10.00;98.20;;;;;;5024601;28;20467;-79
2023/04/01 05:11:00;;;;;;;1.53;1.10;;;10.00;98.20;;;;;;5029738;28;20483;-79
2023/04/01 05:13:27;;;;;;;1.53;1.10;;;10.00;98.20;;;;;;5025824;28;20474;-80
2023/04/01 05:15:54;;;;;;;1.53;1.10;;;10.00;98.20;;;;;;5017060;28;20490;-77
2023/04/01 05:18:23;;;;;;;1.53;1.10;;;10.00;98.20;;;;;;5005863;28;20460;-76
2023/04/01 05:20:52;;;;;;;1.50;1.10;;;10.00;98.20;;;;;;5007737;28;20486;-77
2023/04/01 05:23:20;;;;;;;1.50;1.10;;;10.00;98.20;;;;;;5007520;28;20459;-77
2023/04/01 05:25:47;;;;;;;1.60;1.20;;;10.00;98.20;;;;;;5012355;28;21002;-77
2023/04/01 05:28:15;;;;;;;1.60;1.20;;;10.00;98.20;;;;;;5014465;28;20957;-79
2023/04/01 05:30:43;;;;;;;1.57;1.10;;;10.00;98.20;;;;;;5020808;28;20486;-78
2023/04/01 05:33:10;;;;;;;1.53;1.10;;;10.00;98.20;;;;;;5023927;28;20514;-77
2023/04/01 05:35:39;;;;;;;1.60;1.20;;;10.00;98.20;;;;;;5015511;28;20908;-77
2023/04/01 05:38:07;;;;;;;1.50;1.10;;;10.00;98.20;;;;;;5023493;28;20459;-79
2023/04/01 05:40:34;;;;;;;1.53;1.10;;;10.00;98.20;;;;;;5018397;28;20496;-77
2023/04/01 05:43:01;;;;;;;1.53;1.10;;;10.00;98.20;;;;;;5015093;28;20468;-77
2023/04/01 05:45:28;;;;;;;1.57;1.10;;;10.00;98.20;;;;;;5007495;28;20488;-76
2023/04/01 05:47:54;;;;;;;1.60;1.20;;;10.00;98.20;;;;;;5005110;28;20675;-76
2023/04/01 05:50:21;;;;;;;1.57;1.20;;;10.00;98.20;;;;;;5009753;28;20487;-78
2023/04/01 05:52:49;;;;;;;1.60;1.30;;;10.00;98.20;;;;;;5007691;28;20484;-77
2023/04/01 05:55:16;;;;;;;1.60;1.20;;;10.10;98.20;;;;;;5009001;28;20463;-76
2023/04/01 05:57:45;;;;;;;1.60;1.10;;;10.10;98.20;;;;;;5007473;28;20460;-78
2023/04/01 06:00:13;;;;;;;1.57;1.10;;;10.10;98.20;;;;;;5006058;28;20587;-78
2023/04/01 06:02:41;;;;;;;1.53;1.10;;;10.10;98.20;;;;;;5007458;28;21172;-77
2023/04/01 06:05:17;;;;;;;1.60;1.20;;;10.10;98.20;;;;;;5007665;28;20966;-77
2023/04/01 06:07:43;;;;;;;1.60;1.30;;;10.10;98.20;;;;;;5007797;28;20471;-76
2023/04/01 06:10:15;;;;;;;1.57;1.10;;;10.10;98.20;;;;;;5006498;28;20890;-76
2023/04/01 06:13:01;;;;;;;1.60;1.20;;;10.00;98.20;;;;;;5009930;28;21271;-82
2023/04/01 06:15:37;;;;;;;1.57;1.20;;;10.10;98.20;;;;;;5018133;28;20549;-76
2023/04/01 06:18:27;;;;;;;1.53;1.10;;;10.10;98.20;;;;;;5017559;28;20970;-78
2023/04/01 06:21:05;;;;;;;1.60;1.10;;;10.10;98.20;;;;;;5015146;28;20974;-76
2023/04/01 06:23:53;;;;;;;1.57;1.10;;;10.10;98.20;;;;;;5016062;28;20941;-77
2023/04/01 06:26:31;;;;;;;1.60;1.20;;;10.10;98.20;;;;;;5012501;28;20471;-81
2023/04/01 06:29:20;;;;;;;1.53;1.10;;;10.10;98.20;;;;;;5011408;28;20537;-77
2023/04/01 06:32:07;;;;;;;1.60;1.20;;;10.10;98.20;;;;;;5013689;28;20609;-77
2023/04/01 06:34:48;;;;;;;1.50;1.20;;;10.10;98.20;;;;;;5014243;28;20463;-77
2023/04/01 06:37:43;;;;;;;1.60;1.20;;;10.20;98.20;;;;;;5014009;28;20950;-77
2023/04/01 06:40:46;;;;;;;1.53;1.10;;;10.20;98.20;;;;;;5008629;28;20998;-77
2023/04/01 06:43:25;;;;;;;1.53;1.10;;;10.20;98.20;;;;;;5004711;28;20456;-78
2023/04/01 06:45:57;;;;;;;1.50;1.10;;;10.20;98.20;;;;;;5011973;28;20595;-76
2023/04/01 06:48:43;;;;;;;1.60;1.20;;;10.30;98.20;;;;;;5007340;28;20538;-76
2023/04/01 06:51:23;;;;;;;1.57;1.10;;;10.30;98.20;;;;;;5009124;28;20464;-76
2023/04/01 06:53:57;;;;;;;1.60;1.10;;;10.30;98.20;;;;;;5011343;28;20551;-77
2023/04/01 06:56:27;;;;;;;1.60;1.20;;;10.30;98.20;;;;;;5018617;28;20499;-77
2023/04/01 06:58:59;;;;;;;1.57;1.10;;;10.40;98.20;;;;;;5013500;28;20938;-77
2023/04/01 07:01:32;;;;;;;1.60;1.40;;;10.40;98.20;;;;;;5013198;28;20874;-76
2023/04/01 07:04:02;;;;;;;1.60;1.13;;;10.50;98.20;;;;;;5015615;28;20479;-77
2023/04/01 07:06:33;;;;;;;1.60;1.30;;;10.50;98.20;;;;;;5015675;28;20549;-77
2023/04/01 07:09:06;;;;;;;1.60;1.33;;;10.50;98.20;;;;;;5015460;28;20488;-76
2023/04/01 07:11:36;;;;;;;1.53;1.10;;;10.50;98.20;;;;;;5006491;28;20518;-76
2023/04/01 07:14:11;;;;;;;1.60;1.20;;;10.50;98.20;;;;;;5009364;28;20464;-76
2023/04/01 07:16:43;;;;;;;1.57;1.13;;;10.40;98.20;;;;;;5016782;28;20516;-76
2023/04/01 07:19:16;;;;;;;1.60;1.20;;;10.50;98.20;;;;;;5013489;28;20491;-77
2023/04/01 07:21:48;;;;;;;1.60;1.20;;;10.50;98.20;;;;;;5012940;28;20496;-76
2023/04/01 07:24:21;;;;;;;1.53;1.10;;;10.40;98.20;;;;;;5014074;28;20482;-79
2023/04/01 07:26:50;;;;;;;1.57;1.10;;;10.40;98.20;;;;;;5011671;28;20975;-76
2023/04/01 07:29:19;;;;;;;1.50;1.10;;;10.40;98.20;;;;;;5011576;28;20477;-76
2023/04/01 07:32:01;;;;;;;1.53;1.10;;;10.40;98.20;;;;;;5012305;28;20475;-76
2023/04/01 07:34:30;;;;;;;1.53;1.10;;;10.40;98.20;;;;;;5010236;28;20837;-76
2023/04/01 07:37:06;;;;;;;1.50;1.00;;;10.50;98.20;;;;;;5011880;28;20468;-76
2023/04/01 07:39:43;;;;;;;1.53;1.10;;;10.50;98.20;;;;;;5003856;28;20494;-76
2023/04/01 07:42:17;;;;;;;1.60;1.10;;;10.50;98.20;;;;;;5008726;28;20994;-76
2023/04/01 07:44:55;;;;;;;1.50;1.10;;;10.60;98.20;;;;;;5013487;28;20471;-75
2023/04/01 07:47:36;;;;;;;1.60;1.20;;;10.60;98.20;;;;;;5011649;28;20662;-77
2023/04/01 07:50:14;;;;;;;1.60;1.20;;;10.60;98.20;;;;;;5015853;28;20484;-77
2023/04/01 07:52:49;;;;;;;1.53;1.10;;;10.60;98.20;;;;;;5015094;28;20919;-77
2023/04/01 07:55:20;;;;;;;1.53;1.10;;;10.60;98.20;;;;;;5013531;28;20463;-76
2023/04/01 07:57:54;;;;;;;1.60;1.20;;;10.70;98.20;;;;;;5013156;28;20464;-76
2023/04/01 08:00:28;;;;;;;1.57;1.13;;;10.70;98.20;;;;;;5005995;28;20484;-76
2023/04/01 08:03:12;;;;;;;1.60;1.20;;;10.70;98.20;;;;;;4994069;28;20472;-77
2023/04/01 08:05:46;;;;;;;1.53;1.10;;;10.60;98.20;;;;;;5002813;28;20460;-79
2023/04/01 08:08:20;;;;;;;1.60;1.13;;;10.70;98.20;;;;;;5007796;28;20471;-77
2023/04/01 08:10:52;;;;;;;1.57;1.10;;;10.70;98.20;;;;;;5008208;28;20902;-77
2023/04/01 08:13:27;;;;;;;1.53;1.10;;;10.60;98.20;;;;;;5016864;28;21017;-77
2023/04/01 08:16:02;;;;;;;1.50;1.10;;;10.60;98.20;;;;;;5009708;28;21101;-76
2023/04/01 08:18:39;;;;;;;1.60;1.20;;;10.60;98.20;;;;;;5011866;28;20463;-78
2023/04/01 08:21:12;;;;;;;1.60;1.10;;;10.60;98.20;;;;;;5015386;28;20490;-76
2023/04/01 08:23:44;;;;;;;1.60;1.20;;;10.60;98.20;;;;;;5008983;28;20471;-77
2023/04/01 08:26:16;;;;;;;1.57;1.10;;;10.60;98.20;;;;;;5012476;28;20472;-76
2023/04/01 08:28:50;;;;;;;1.60;1.20;;;10.60;98.20;;;;;;5008545;28;20464;-76
2023/04/01 08:31:23;;;;;;;1.53;1.10;;;10.60;98.20;;;;;;5010988;28;20473;-77
2023/04/01 08:33:53;;;;;;;1.60;1.20;;;10.60;98.20;;;;;;5007481;28;20555;-77
2023/04/01 08:36:25;;;;;;;1.50;1.10;;;10.60;98.20;;;;;;5004037;28;20958;-82
2023/04/01 08:38:56;;;;;;;1.53;1.10;;;10.70;98.20;;;;;;5004858;28;21134;-81
2023/04/01 08:41:40;;;;;;;1.53;1.10;;;10.70;98.20;;;;;;5011870;28;20468;-79
2023/04/01 08:44:35;;;;;;;1.60;1.20;;;10.70;98.20;;;;;;5010708;28;20455;-76
2023/04/01 08:47:25;;;;;;;1.53;1.10;;;10.80;98.20;;;;;;5014707;28;20469;-76
2023/04/01 08:50:17;;;;;;;1.50;1.10;;;10.80;98.20;;;;;;5010984;28;20488;-78
2023/04/01 08:52:51;;;;;;;1.57;1.10;;;10.80;98.20;;;;;;5009709;28;20806;-79
2023/04/01 08:55:37;;;;;;;1.50;1.10;;;10.80;98.20;;;;;;5007186;28;20463;-78
2023/04/01 08:58:33;;;;;;;1.50;1.10;;;10.90;98.20;;;;;;5008308;28;21002;-80
2023/04/01 09:01:14;;;;;;;1.57;1.10;;;10.90;98.20;;;;;;5007249;28;20518;-78
2023/04/01 09:04:21;;;;;;;1.53;1.10;;;10.90;98.20;;;;;;5006103;28;20460;-78
2023/04/01 09:07:01;;;;;;;1.57;1.10;;;10.90;98.20;;;;;;5004430;28;20471;-79
2023/04/01 09:10:03;;;;;;;1.50;1.10;;;11.00;98.20;;;;;;5005681;28;20562;-77
2023/04/01 09:12:52;;;;;;;1.53;1.10;;;11.00;98.20;;;;;;5006439;28;20487;-80
2023/04/01 09:15:38;;;;;;;1.57;1.10;;;11.00;98.20;;;;;;5011224;28;20474;-78
2023/04/01 09:18:39;;;;;;;1.57;1.10;;;11.10;98.20;;;;;;5005196;28;20468;-79
2023/04/01 09:21:33;;;;;;;1.57;1.10;;;11.10;98.20;;;;;;4994741;28;20541;-78
2023/04/01 09:24:32;;;;;;;1.60;1.10;;;11.20;98.20;;;;;;5004325;28;20464;-77
2023/04/01 09:27:04;;;;;;;1.60;1.20;;;11.20;98.20;;;;;;4989405;28;20698;-77
2023/04/01 09:29:52;;;;;;;1.60;1.10;;;11.20;98.20;;;;;;5011283;28;20484;-80
2023/04/01 09:32:48;;;;;;;1.53;1.00;;;11.20;98.20;;;;;;5006217;28;20464;-78
2023/04/01 09:35:25;;;;;;;1.57;1.10;;;11.20;98.20;;;;;;4996262;28;20472;-78
2023/04/01 09:38:01;;;;;;;1.60;1.20;;;11.20;98.20;;;;;;5015586;28;20479;-78
2023/04/01 09:40:46;;;;;;;1.70;1.53;;;11.10;98.20;;;;;;5005815;28;20491;-82
2023/04/01 09:43:35;;;;;;;1.57;1.10;;;11.10;98.20;;;;;;5003582;28;20472;-78
2023/04/01 09:46:17;;;;;;;1.50;1.00;;;11.00;98.20;;;;;;5011978;28;20479;-77
2023/04/01 09:49:26;;;;;;;1.57;1.10;;;11.00;98.20;;;;;;5003774;28;20859;-78
2023/04/01 09:52:05;;;;;;;1.60;1.10;;;11.00;98.20;;;;;;5004746;28;20472;-79
2023/04/01 09:54:58;;;;;;;1.53;1.10;;;11.00;98.20;;;;;;5007464;28;20502;-78
2023/04/01 09:58:16;;;;;;;1.50;1.10;;;10.90;98.20;;;;;;5006129;28;20472;-78
2023/04/01 10:00:56;;;;;;;1.60;1.10;;;10.90;98.20;;;;;;4911746;29;20486;-78
2023/04/01 10:04:01;;;;;;;1.53;1.10;;;10.90;98.20;;;;;;5008747;28;20465;-79
2023/04/01 10:07:06;;;;;;;1.60;1.10;;;11.00;98.20;;;;;;5005329;28;20849;-78
2023/04/01 10:10:29;;;;;;;1.60;1.10;;;11.00;98.20;;;;;;4993884;28;20566;-81
2023/04/01 10:13:34;;;;;;;1.57;1.10;;;11.00;98.20;;;;;;4930018;29;20527;-78
2023/04/01 10:16:48;;;;;;;1.50;1.10;;;11.00;98.20;;;;;;4928273;29;20468;-83
2023/04/01 10:19:54;;;;;;;1.50;1.00;;;11.10;98.20;;;;;;4929822;28;20487;-79
2023/04/01 10:22:45;;;;;;;1.50;1.00;;;11.10;98.20;;;;;;5002611;28;20462;-78
2023/04/01 10:25:30;;;;;;;1.57;1.10;;;11.10;98.20;;;;;;5027631;28;20466;-79
2023/04/01 10:28:28;;;;;;;1.60;1.20;;;11.10;98.20;;;;;;5026338;28;20466;-79
2023/04/01 10:31:27;;;;;;;1.53;1.10;;;11.20;98.20;;;;;;5002083;28;20494;-83
2023/04/01 10:34:34;;;;;;;1.53;1.10;;;11.20;98.20;;;;;;5023338;28;20494;-77
2023/04/01 10:37:14;;;;;;;1.50;1.00;;;11.20;98.20;;;;;;5031886;28;20471;-79
2023/04/01 10:40:17;;;;;;;1.60;1.10;;;11.20;98.20;;;;;;5029260;28;20668;-78
2023/04/01 10:43:38;;;;;;;1.53;1.10;;;11.20;98.20;;;;;;5024550;28;20462;-79
2023/04/01 10:46:41;;;;;;;1.60;1.10;;;11.20;98.20;;;;;;5027573;28;20463;-78
2023/04/01 10:49:32;;;;;;;1.53;1.10;;;11.30;98.20;;;;;;5031953;28;20487;-79
2023/04/01 10:55:52;;;;;;;1.60;1.10;;;11.30;98.20;;;;;;5017261;28;20470;-78
2023/04/01 10:58:49;;;;;;;1.57;1.10;;;11.30;98.20;;;;;;4987831;28;20463;-79
2023/04/01 11:01:48;;;;;;;1.53;1.10;;;11.30;98.20;;;;;;5030462;28;20489;-79
2023/04/01 11:04:56;;;;;;;1.60;1.10;;;11.30;98.20;;;;;;4979959;28;20768;-76
2023/04/01 11:07:46;;;;;;;1.60;1.10;;;11.30;98.20;;;;;;5027496;28;20468;-77
2023/04/01 11:10:31;;;;;;;1.57;1.10;;;11.40;98.20;;;;;;4991253;28;20496;-76
2023/04/01 11:13:53;;;;;;;1.57;1.07;;;11.50;98.20;;;;;;5023130;28;20528;-76
2023/04/01 11:16:58;;;;;;;1.53;1.10;;;11.60;98.20;;;;;;5027219;28;20463;-79
2023/04/01 11:19:57;;;;;;;1.60;1.17;;;11.70;98.20;;;;;;5002340;28;21021;-78
2023/04/01 11:22:46;;;;;;;1.57;1.03;;;11.70;98.20;;;;;;5028945;28;20467;-77
2023/04/01 11:25:30;;;;;;;1.60;1.20;;;11.70;98.20;;;;;;5023072;28;20463;-76
2023/04/01 11:28:28;;;;;;;1.50;1.00;;;11.70;98.20;;;;;;5026174;28;20485;-77
2023/04/01 11:31:12;;;;;;;1.60;1.10;;;11.60;98.20;;;;;;5031825;28;21030;-76
2023/04/01 11:33:45;;;;;;;1.57;1.00;;;11.60;98.20;;;;;;5031330;28;20498;-76
2023/04/01 11:36:22;;;;;;;1.50;1.10;;;11.70;98.20;;;;;;5023083;28;20463;-77
2023/04/01 11:39:03;;;;;;;1.50;1.00;;;11.80;98.20;;;;;;5027863;28;20861;-79
2023/04/01 11:41:37;;;;;;;1.57;1.07;;;11.80;98.20;;;;;;5026049;28;20467;-78
2023/04/01 11:44:19;;;;;;;1.60;1.10;;;11.90;98.20;;;;;;5026494;28;20459;-79
2023/04/01 11:47:01;;;;;;;1.57;1.00;;;11.90;98.20;;;;;;5021076;28;20844;-80
2023/04/01 11:49:47;;;;;;;1.60;1.10;;;12.00;98.20;;;;;;5021677;28;21130;-78
2023/04/01 11:52:28;;;;;;;1.53;1.00;;;12.00;98.20;;;;;;5021253;28;20977;-79
2023/04/01 11:55:11;;;;;;;1.57;1.10;;;12.00;98.20;;;;;;5022161;28;20494;-79
2023/04/01 11:57:57;;;;;;;1.50;1.10;;;12.10;98.20;;;;;;5032992;28;20874;-78
2023/04/01 12:00:47;;;;;;;1.57;1.10;;;12.10;98.20;;;;;;5030955;28;20690;-78
2023/04/01 12:03:38;;;;;;;1.57;1.10;;;12.10;98.20;;;;;;5014697;28;20482;-78
2023/04/01 12:06:14;;;;;;;1.57;1.10;;;12.20;98.20;;;;;;5026268;28;20501;-77
2023/04/01 12:08:53;;;;;;;1.50;1.00;;;12.30;98.20;;;;;;5029499;28;20463;-78
2023/04/01 12:11:28;;;;;;;1.50;1.00;;;12.30;98.20;;;;;;5027459;28;20946;-82
2023/04/01 12:14:00;;;;;;;1.50;1.00;;;12.40;98.20;;;;;;5023403;28;21311;-77
2023/04/01 12:16:40;;;;;;;1.57;1.00;;;12.40;98.20;;;;;;5030627;28;20864;-78
2023/04/01 12:19:17;;;;;;;1.57;1.10;;;12.40;98.20;;;;;;5023530;28;20487;-77
2023/04/01 12:21:50;;;;;;;1.53;0.93;;;12.40;98.20;;;;;;5023547;28;20470;-83
2023/04/01 12:24:33;;;;;;;1.60;1.17;;;12.40;98.20;;;;;;5033385;28;20459;-79
2023/04/01 12:27:13;;;;;;;1.57;1.00;;;12.40;98.20;;;;;;5035348;28;20987;-78
2023/04/01 12:29:59;;;;;;;1.60;1.00;;;12.40;98.20;;;;;;5027608;28;20571;-79
2023/04/01 12:32:35;;;;;;;1.53;1.03;;;12.40;98.20;;;;;;5025583;28;20552;-79
2023/04/01 12:35:18;;;;;;;1.53;1.00;;;12.30;98.20;;;;;;5027528;28;20486;-77
2023/04/01 12:37:57;;;;;;;1.50;1.00;;;12.30;98.20;;;;;;5023646;28;20462;-79
2023/04/01 12:40:44;;;;;;;1.50;0.93;;;12.30;98.20;;;;;;5022137;28;20506;-77
2023/04/01 12:43:32;;;;;;;1.57;1.00;;;12.30;98.20;;;;;;5027317;28;20520;-75
2023/04/01 12:46:07;;;;;;;1.50;1.00;;;12.20;98.20;;;;;;5030730;28;20516;-75
2023/04/01 12:48:51;;;;;;;1.53;1.00;;;12.20;98.20;;;;;;5027346;28;20552;-78
2023/04/01 12:51:30;;;;;;;1.50;1.00;;;12.10;98.20;;;;;;5027377;28;20463;-78
2023/04/01 12:54:20;;;;;;;1.60;1.10;;;12.00;98.20;;;;;;5028290;28;20478;-77
2023/04/01 12:56:57;;;;;;;1.57;1.10;;;12.00;98.20;;;;;;5022126;28;20562;-80
2023/04/01 12:59:39;;;;;;;1.60;1.10;;;11.90;98.20;;;;;;5017500;28;20517;-77
2023/04/01 13:02:14;;;;;;;1.53;1.00;;;11.90;98.20;;;;;;5019509;28;20498;-77
2023/04/01 13:05:10;;;;;;;1.60;1.10;;;11.80;98.20;;;;;;5022628;28;20469;-80
2023/04/01 13:07:54;;;;;;;1.50;1.00;;;11.80;98.20;;;;;;5026062;28;20464;-77
2023/04/01 13:10:48;;;;;;;1.50;1.07;;;11.80;98.20;;;;;;5024073;28;20494;-77
2023/04/01 13:13:50;;;;;;;1.57;1.03;;;11.80;98.20;;;;;;5026098;28;20968;-76
2023/04/01 13:16:21;;;;;;;1.57;1.00;;;11.80;98.20;;;;;;5018074;28;20466;-77
2023/04/01 13:18:59;;;;;;;1.60;1.10;;;11.80;98.20;;;;;;5030792;28;20490;-79
2023/04/01 13:21:36;;;;;;;1.53;1.07;;;11.80;98.20;;;;;;5028687;28;20465;-78
2023/04/01 13:24:11;;;;;;;1.57;1.10;;;11.80;98.20;;;;;;5027863;28;20533;-79
2023/04/01 13:26:41;;;;;;;1.50;1.10;;;11.80;98.20;;;;;;5026344;28;20466;-78
2023/04/01 13:29:15;;;;;;;1.57;1.10;;;11.80;98.20;;;;;;5024140;28;20522;-77
2023/04/01 13:31:56;;;;;;;1.57;1.10;;;11.80;98.20;;;;;;5026077;28;20470;-79
2023/04/01 13:34:38;;;;;;;1.50;1.00;;;11.80;98.20;;;;;;5027400;28;20497;-78
2023/04/01 13:37:20;;;;;;;1.50;1.00;;;11.80;98.20;;;;;;5031983;28;20873;-77
2023/04/01 13:39:59;;;;;;;1.90;1.47;;;11.90;98.20;;;;;;5026054;28;21084;-78